San Jose, Costa Rica

3:10 PM CST on April 23, 2017 (GMT -0600)
Juan Santamaria International | | Change Station

Elev 3054 ft 10.00 °N, 84.22 °W | Updated 10 minutes ago

Thunderstorm
Thunderstorm
79 °F
Feels Like 79 °F
N
10
Wind Variable Wind from NNE

Today
High -- | Low -- °F
--% Chance of Precip.
Yesterday
High -- | Low -- °F
Precip. -- in
Pressure 29.91 in
Visibility 6.2 miles
Clouds Scattered Clouds 2000 ft
Mostly Cloudy 4000 ft
Dew Point 68 °F
Humidity 69%
Rainfall 0.00 in
Snow Depth Not available.
5:22 AM 5:47 PM
Waning Crescent, 9% visible
METAR MROC 232100Z 02009KT 9999 4000NE -TSRA SCT020CB BKN040 26/20 A2991 BECMG 5000
Pressure 29.91 in
Visibility 6.2 miles
Clouds Scattered Clouds 2000 ft
Mostly Cloudy 4000 ft
Dew Point 68 °F
Humidity 69%
Rainfall 0.00 in
Snow Depth Not available.
5:22 AM 5:47 PM
Waning Crescent, 9% visible
METAR MROC 232100Z 02009KT 9999 4000NE -TSRA SCT020CB BKN040 26/20 A2991 BECMG 5000

Get Severe Weather Alerts

Thanks for signing up!

Be on the lookout for a verification email in your inbox.

You'll start receiving the daily forecast at 8 AM.

×

10-Day Weather Forecast

No radar image for this location.
×

Almanac

Astronomy

Apr. 23, 2017 Rise Set
Actual Time
Civil Twilight
Nautical Twilight
Astronomical Twilight
Moon
Length of Visible Light
Length of Day
Tomorrow will be .
, % of the Moon is Illuminated

Today's Extremes

Country Highs Country Lows

Community

WunderPhotos

WunderBlog® & News

Nearby

Air Quality

  Air Quality AQ Index Pollutant
Not available.

Snow Depth

Station Depth Elevation

Earthquake Activity

City Distance Mag. Time & Date
Minimum magnitude displayed is 2.5.

Coastal Water Temperatures

Place Temperature

Stations

Nearby Weather Stations

Station Location Temp. Windchill Dew Point Humidity Wind Precip. Elev Updated Type